sensor_id;sensor_type;location;lat;lon;timestamp;temperature;humidity
57664;DHT22;43493;53.098;6.064;2024-03-08T00:01:30;3.10;99.90
57664;DHT22;43493;53.098;6.064;2024-03-08T00:03:56;3.10;99.90
57664;DHT22;43493;53.098;6.064;2024-03-08T00:06:22;3.10;99.90
57664;DHT22;43493;53.098;6.064;2024-03-08T00:08:48;3.00;99.90
57664;DHT22;43493;53.098;6.064;2024-03-08T00:11:13;3.00;99.90
57664;DHT22;43493;53.098;6.064;2024-03-08T00:13:39;3.00;99.90
57664;DHT22;43493;53.098;6.064;2024-03-08T00:16:05;3.00;99.90
57664;DHT22;43493;53.098;6.064;2024-03-08T00:18:31;3.00;99.90
57664;DHT22;43493;53.098;6.064;2024-03-08T00:20:56;3.00;99.90
57664;DHT22;43493;53.098;6.064;2024-03-08T00:23:22;2.90;99.90
57664;DHT22;43493;53.098;6.064;2024-03-08T00:25:48;2.90;99.90
57664;DHT22;43493;53.098;6.064;2024-03-08T00:28:14;2.90;99.90
57664;DHT22;43493;53.098;6.064;2024-03-08T00:30:42;2.90;99.90
57664;DHT22;43493;53.098;6.064;2024-03-08T00:33:08;2.80;99.90
57664;DHT22;43493;53.098;6.064;2024-03-08T00:35:34;2.80;99.90
57664;DHT22;43493;53.098;6.064;2024-03-08T00:38:00;2.80;99.90
57664;DHT22;43493;53.098;6.064;2024-03-08T00:40:25;2.80;99.90
57664;DHT22;43493;53.098;6.064;2024-03-08T00:42:51;2.80;99.90
57664;DHT22;43493;53.098;6.064;2024-03-08T00:45:18;2.80;99.90
57664;DHT22;43493;53.098;6.064;2024-03-08T00:47:44;2.70;99.90
57664;DHT22;43493;53.098;6.064;2024-03-08T00:50:10;2.70;99.90
57664;DHT22;43493;53.098;6.064;2024-03-08T00:52:37;2.70;99.90
57664;DHT22;43493;53.098;6.064;2024-03-08T00:55:03;2.70;99.90
57664;DHT22;43493;53.098;6.064;2024-03-08T00:57:29;2.70;99.90
57664;DHT22;43493;53.098;6.064;2024-03-08T00:59:55;2.70;99.90
57664;DHT22;43493;53.098;6.064;2024-03-08T01:02:21;2.70;99.90
57664;DHT22;43493;53.098;6.064;2024-03-08T01:04:48;2.70;99.90
57664;DHT22;43493;53.098;6.064;2024-03-08T01:07:15;2.70;99.90
57664;DHT22;43493;53.098;6.064;2024-03-08T01:09:41;2.60;99.90
57664;DHT22;43493;53.098;6.064;2024-03-08T01:12:07;2.60;99.90
57664;DHT22;43493;53.098;6.064;2024-03-08T01:14:33;2.60;99.90
57664;DHT22;43493;53.098;6.064;2024-03-08T01:16:59;2.60;99.90
57664;DHT22;43493;53.098;6.064;2024-03-08T01:19:25;2.60;99.90
57664;DHT22;43493;53.098;6.064;2024-03-08T01:21:51;2.60;99.90
57664;DHT22;43493;53.098;6.064;2024-03-08T01:24:17;2.50;99.90
57664;DHT22;43493;53.098;6.064;2024-03-08T01:26:42;2.50;99.90
57664;DHT22;43493;53.098;6.064;2024-03-08T01:29:08;2.50;99.90
57664;DHT22;43493;53.098;6.064;2024-03-08T01:31:34;2.50;99.90
57664;DHT22;43493;53.098;6.064;2024-03-08T01:34:02;2.50;99.90
57664;DHT22;43493;53.098;6.064;2024-03-08T01:36:27;2.50;99.90
57664;DHT22;43493;53.098;6.064;2024-03-08T01:38:53;2.50;99.90
57664;DHT22;43493;53.098;6.064;2024-03-08T01:41:19;2.50;99.90
57664;DHT22;43493;53.098;6.064;2024-03-08T01:43:45;2.50;99.90
57664;DHT22;43493;53.098;6.064;2024-03-08T01:46:13;2.50;99.90
57664;DHT22;43493;53.098;6.064;2024-03-08T01:48:42;2.50;99.90
57664;DHT22;43493;53.098;6.064;2024-03-08T01:51:08;2.50;99.90
57664;DHT22;43493;53.098;6.064;2024-03-08T01:53:34;2.50;99.90
57664;DHT22;43493;53.098;6.064;2024-03-08T01:56:01;2.50;99.90
57664;DHT22;43493;53.098;6.064;2024-03-08T01:58:29;2.50;99.90
57664;DHT22;43493;53.098;6.064;2024-03-08T02:00:56;2.40;99.90
57664;DHT22;43493;53.098;6.064;2024-03-08T02:03:23;2.40;99.90
57664;DHT22;43493;53.098;6.064;2024-03-08T02:05:49;2.40;99.90
57664;DHT22;43493;53.098;6.064;2024-03-08T02:08:16;2.40;99.90
57664;DHT22;43493;53.098;6.064;2024-03-08T02:10:43;2.40;99.90
57664;DHT22;43493;53.098;6.064;2024-03-08T02:13:09;2.40;99.90
57664;DHT22;43493;53.098;6.064;2024-03-08T02:18:20;2.30;99.90
57664;DHT22;43493;53.098;6.064;2024-03-08T02:20:59;2.30;99.90
57664;DHT22;43493;53.098;6.064;2024-03-08T02:23:26;2.30;99.90
57664;DHT22;43493;53.098;6.064;2024-03-08T02:25:52;2.30;99.90
57664;DHT22;43493;53.098;6.064;2024-03-08T02:28:19;2.30;99.90
57664;DHT22;43493;53.098;6.064;2024-03-08T02:30:51;2.30;99.90
57664;DHT22;43493;53.098;6.064;2024-03-08T02:33:21;2.30;99.90
57664;DHT22;43493;53.098;6.064;2024-03-08T02:35:48;2.20;99.90
57664;DHT22;43493;53.098;6.064;2024-03-08T02:38:19;2.20;99.90
57664;DHT22;43493;53.098;6.064;2024-03-08T02:40:47;2.20;99.90
57664;DHT22;43493;53.098;6.064;2024-03-08T02:43:14;2.20;99.90
57664;DHT22;43493;53.098;6.064;2024-03-08T02:45:40;2.20;99.90
57664;DHT22;43493;53.098;6.064;2024-03-08T02:48:10;2.20;99.90
57664;DHT22;43493;53.098;6.064;2024-03-08T02:50:37;2.20;99.90
57664;DHT22;43493;53.098;6.064;2024-03-08T02:53:03;2.20;99.90
57664;DHT22;43493;53.098;6.064;2024-03-08T02:55:29;2.20;99.90
57664;DHT22;43493;53.098;6.064;2024-03-08T02:57:56;2.20;99.90
57664;DHT22;43493;53.098;6.064;2024-03-08T03:00:22;2.20;99.90
57664;DHT22;43493;53.098;6.064;2024-03-08T03:02:52;2.10;99.90
57664;DHT22;43493;53.098;6.064;2024-03-08T03:05:21;2.10;99.90
57664;DHT22;43493;53.098;6.064;2024-03-08T03:07:46;2.10;99.90
57664;DHT22;43493;53.098;6.064;2024-03-08T03:10:14;2.00;99.90
57664;DHT22;43493;53.098;6.064;2024-03-08T03:12:43;2.00;99.90
57664;DHT22;43493;53.098;6.064;2024-03-08T03:15:11;2.00;99.90
57664;DHT22;43493;53.098;6.064;2024-03-08T03:17:37;2.00;99.90
57664;DHT22;43493;53.098;6.064;2024-03-08T03:20:05;2.00;99.90
57664;DHT22;43493;53.098;6.064;2024-03-08T03:22:36;2.00;99.90
57664;DHT22;43493;53.098;6.064;2024-03-08T03:25:03;2.00;99.90
57664;DHT22;43493;53.098;6.064;2024-03-08T03:27:30;2.00;99.90
57664;DHT22;43493;53.098;6.064;2024-03-08T03:29:56;2.00;99.90
57664;DHT22;43493;53.098;6.064;2024-03-08T03:32:23;2.00;99.90
57664;DHT22;43493;53.098;6.064;2024-03-08T03:34:49;2.00;99.90
57664;DHT22;43493;53.098;6.064;2024-03-08T03:37:21;2.00;99.90
57664;DHT22;43493;53.098;6.064;2024-03-08T03:39:47;1.90;99.90
57664;DHT22;43493;53.098;6.064;2024-03-08T03:42:19;1.90;99.90
57664;DHT22;43493;53.098;6.064;2024-03-08T03:44:48;1.90;99.90
57664;DHT22;43493;53.098;6.064;2024-03-08T03:47:17;1.90;99.90
57664;DHT22;43493;53.098;6.064;2024-03-08T03:49:43;1.90;99.90
57664;DHT22;43493;53.098;6.064;2024-03-08T03:52:09;1.90;99.90
57664;DHT22;43493;53.098;6.064;2024-03-08T03:54:36;1.90;99.90
57664;DHT22;43493;53.098;6.064;2024-03-08T03:57:01;1.90;99.90
57664;DHT22;43493;53.098;6.064;2024-03-08T03:59:28;1.90;99.90
57664;DHT22;43493;53.098;6.064;2024-03-08T04:01:54;1.90;99.90
57664;DHT22;43493;53.098;6.064;2024-03-08T04:04:21;1.80;99.90
57664;DHT22;43493;53.098;6.064;2024-03-08T04:06:46;1.80;99.90
57664;DHT22;43493;53.098;6.064;2024-03-08T04:09:13;1.80;99.90
57664;DHT22;43493;53.098;6.064;2024-03-08T04:11:39;1.90;99.90
57664;DHT22;43493;53.098;6.064;2024-03-08T04:14:06;1.80;99.90
57664;DHT22;43493;53.098;6.064;2024-03-08T04:16:32;1.80;99.90
57664;DHT22;43493;53.098;6.064;2024-03-08T04:18:58;1.80;99.90
57664;DHT22;43493;53.098;6.064;2024-03-08T04:21:24;1.80;99.90
57664;DHT22;43493;53.098;6.064;2024-03-08T04:23:50;1.70;99.90
57664;DHT22;43493;53.098;6.064;2024-03-08T04:26:15;1.70;99.90
57664;DHT22;43493;53.098;6.064;2024-03-08T04:28:41;1.80;99.90
57664;DHT22;43493;53.098;6.064;2024-03-08T04:31:07;1.80;99.90
57664;DHT22;43493;53.098;6.064;2024-03-08T04:33:33;1.80;99.90
57664;DHT22;43493;53.098;6.064;2024-03-08T04:36:01;1.70;99.90
57664;DHT22;43493;53.098;6.064;2024-03-08T04:38:30;1.80;99.90
57664;DHT22;43493;53.098;6.064;2024-03-08T04:40:57;1.80;99.90
57664;DHT22;43493;53.098;6.064;2024-03-08T04:43:23;1.70;99.90
57664;DHT22;43493;53.098;6.064;2024-03-08T04:45:52;1.70;99.90
57664;DHT22;43493;53.098;6.064;2024-03-08T04:48:19;1.70;99.90
57664;DHT22;43493;53.098;6.064;2024-03-08T04:50:46;1.70;99.90
57664;DHT22;43493;53.098;6.064;2024-03-08T04:53:12;1.70;99.90
57664;DHT22;43493;53.098;6.064;2024-03-08T04:55:37;1.70;99.90
57664;DHT22;43493;53.098;6.064;2024-03-08T04:58:03;1.70;99.90
57664;DHT22;43493;53.098;6.064;2024-03-08T05:00:32;1.70;99.90
57664;DHT22;43493;53.098;6.064;2024-03-08T05:02:58;1.60;99.90
57664;DHT22;43493;53.098;6.064;2024-03-08T05:05:24;1.60;99.90
57664;DHT22;43493;53.098;6.064;2024-03-08T05:07:50;1.60;99.90
57664;DHT22;43493;53.098;6.064;2024-03-08T05:10:16;1.60;99.90
57664;DHT22;43493;53.098;6.064;2024-03-08T05:12:43;1.60;99.90
57664;DHT22;43493;53.098;6.064;2024-03-08T05:15:09;1.50;99.90
57664;DHT22;43493;53.098;6.064;2024-03-08T05:17:35;1.50;99.90
57664;DHT22;43493;53.098;6.064;2024-03-08T05:20:01;1.60;99.90
57664;DHT22;43493;53.098;6.064;2024-03-08T05:22:27;1.60;99.90
57664;DHT22;43493;53.098;6.064;2024-03-08T05:24:53;1.60;99.90
57664;DHT22;43493;53.098;6.064;2024-03-08T05:27:19;1.50;99.90
57664;DHT22;43493;53.098;6.064;2024-03-08T05:29:45;1.50;99.90
57664;DHT22;43493;53.098;6.064;2024-03-08T05:32:12;1.50;99.90
57664;DHT22;43493;53.098;6.064;2024-03-08T05:34:37;1.50;99.90
57664;DHT22;43493;53.098;6.064;2024-03-08T05:37:04;1.50;99.90
57664;DHT22;43493;53.098;6.064;2024-03-08T05:39:30;1.50;99.90
57664;DHT22;43493;53.098;6.064;2024-03-08T05:41:56;1.50;99.90
57664;DHT22;43493;53.098;6.064;2024-03-08T05:44:22;1.50;99.90
57664;DHT22;43493;53.098;6.064;2024-03-08T05:46:48;1.40;99.90
57664;DHT22;43493;53.098;6.064;2024-03-08T05:49:14;1.40;99.90
57664;DHT22;43493;53.098;6.064;2024-03-08T05:51:40;1.40;99.90
57664;DHT22;43493;53.098;6.064;2024-03-08T05:54:07;1.40;99.90
57664;DHT22;43493;53.098;6.064;2024-03-08T05:56:37;1.40;99.90
57664;DHT22;43493;53.098;6.064;2024-03-08T05:59:03;1.40;99.90
57664;DHT22;43493;53.098;6.064;2024-03-08T06:01:29;1.40;99.90
57664;DHT22;43493;53.098;6.064;2024-03-08T06:03:57;1.40;99.90
57664;DHT22;43493;53.098;6.064;2024-03-08T06:06:26;1.40;99.90
57664;DHT22;43493;53.098;6.064;2024-03-08T06:08:52;1.30;99.90
57664;DHT22;43493;53.098;6.064;2024-03-08T06:11:19;1.40;99.90
57664;DHT22;43493;53.098;6.064;2024-03-08T06:13:49;1.30;99.90
57664;DHT22;43493;53.098;6.064;2024-03-08T06:16:15;1.40;99.90
57664;DHT22;43493;53.098;6.064;2024-03-08T06:18:41;1.40;99.90
57664;DHT22;43493;53.098;6.064;2024-03-08T06:21:08;1.30;99.90
57664;DHT22;43493;53.098;6.064;2024-03-08T06:23:41;1.40;99.90
57664;DHT22;43493;53.098;6.064;2024-03-08T06:26:07;1.40;99.90
57664;DHT22;43493;53.098;6.064;2024-03-08T06:28:34;1.40;99.90
57664;DHT22;43493;53.098;6.064;2024-03-08T06:31:03;1.40;99.90
57664;DHT22;43493;53.098;6.064;2024-03-08T06:33:29;1.40;99.90
57664;DHT22;43493;53.098;6.064;2024-03-08T06:35:56;1.40;99.90
57664;DHT22;43493;53.098;6.064;2024-03-08T06:38:26;1.40;99.90
57664;DHT22;43493;53.098;6.064;2024-03-08T06:40:52;1.40;99.90
57664;DHT22;43493;53.098;6.064;2024-03-08T06:43:18;1.40;99.90
57664;DHT22;43493;53.098;6.064;2024-03-08T06:45:45;1.40;99.90
57664;DHT22;43493;53.098;6.064;2024-03-08T06:48:23;1.50;99.90
57664;DHT22;43493;53.098;6.064;2024-03-08T06:50:48;1.50;99.90
57664;DHT22;43493;53.098;6.064;2024-03-08T06:53:15;1.50;99.90
57664;DHT22;43493;53.098;6.064;2024-03-08T06:55:40;1.60;99.90
57664;DHT22;43493;53.098;6.064;2024-03-08T06:58:06;1.60;99.90
57664;DHT22;43493;53.098;6.064;2024-03-08T07:00:33;1.60;99.90
57664;DHT22;43493;53.098;6.064;2024-03-08T07:02:59;1.60;99.90
57664;DHT22;43493;53.098;6.064;2024-03-08T07:05:28;1.70;99.90
57664;DHT22;43493;53.098;6.064;2024-03-08T07:07:54;1.70;99.90
57664;DHT22;43493;53.098;6.064;2024-03-08T07:10:21;1.70;99.90
57664;DHT22;43493;53.098;6.064;2024-03-08T07:12:50;1.70;99.90
57664;DHT22;43493;53.098;6.064;2024-03-08T07:15:16;1.80;99.90
57664;DHT22;43493;53.098;6.064;2024-03-08T07:17:47;1.80;99.90
57664;DHT22;43493;53.098;6.064;2024-03-08T07:20:14;1.80;99.90
57664;DHT22;43493;53.098;6.064;2024-03-08T07:22:41;1.90;99.90
57664;DHT22;43493;53.098;6.064;2024-03-08T07:25:08;1.90;99.90
57664;DHT22;43493;53.098;6.064;2024-03-08T07:27:34;2.00;99.90
57664;DHT22;43493;53.098;6.064;2024-03-08T07:30:04;2.00;99.90
57664;DHT22;43493;53.098;6.064;2024-03-08T07:32:30;2.10;99.90
57664;DHT22;43493;53.098;6.064;2024-03-08T07:34:57;2.20;99.90
57664;DHT22;43493;53.098;6.064;2024-03-08T07:37:24;2.30;99.90
57664;DHT22;43493;53.098;6.064;2024-03-08T07:39:49;2.40;99.90
57664;DHT22;43493;53.098;6.064;2024-03-08T07:42:15;2.50;99.90
57664;DHT22;43493;53.098;6.064;2024-03-08T07:44:42;2.50;99.90
57664;DHT22;43493;53.098;6.064;2024-03-08T07:47:08;2.70;99.90
57664;DHT22;43493;53.098;6.064;2024-03-08T07:49:36;2.80;99.90
57664;DHT22;43493;53.098;6.064;2024-03-08T07:52:03;2.90;99.90
57664;DHT22;43493;53.098;6.064;2024-03-08T07:54:30;3.00;99.90
57664;DHT22;43493;53.098;6.064;2024-03-08T07:56:56;3.10;99.90
57664;DHT22;43493;53.098;6.064;2024-03-08T07:59:22;3.20;99.90
57664;DHT22;43493;53.098;6.064;2024-03-08T08:01:48;3.30;99.90
57664;DHT22;43493;53.098;6.064;2024-03-08T08:04:13;3.40;99.90
57664;DHT22;43493;53.098;6.064;2024-03-08T08:06:40;3.40;99.90
57664;DHT22;43493;53.098;6.064;2024-03-08T08:09:09;3.50;99.90
57664;DHT22;43493;53.098;6.064;2024-03-08T08:11:41;3.60;99.90
57664;DHT22;43493;53.098;6.064;2024-03-08T08:14:09;3.60;99.90
57664;DHT22;43493;53.098;6.064;2024-03-08T08:16:36;3.60;99.90
57664;DHT22;43493;53.098;6.064;2024-03-08T08:19:07;3.70;99.90
57664;DHT22;43493;53.098;6.064;2024-03-08T08:21:36;3.70;99.90
57664;DHT22;43493;53.098;6.064;2024-03-08T08:24:04;3.80;99.90
57664;DHT22;43493;53.098;6.064;2024-03-08T08:26:30;3.80;99.90
57664;DHT22;43493;53.098;6.064;2024-03-08T08:28:56;3.80;99.90
57664;DHT22;43493;53.098;6.064;2024-03-08T08:31:22;3.90;99.90
57664;DHT22;43493;53.098;6.064;2024-03-08T08:33:48;3.90;99.90
57664;DHT22;43493;53.098;6.064;2024-03-08T08:36:14;4.00;99.90
57664;DHT22;43493;53.098;6.064;2024-03-08T08:38:40;4.00;99.90
57664;DHT22;43493;53.098;6.064;2024-03-08T08:41:10;4.00;99.90
57664;DHT22;43493;53.098;6.064;2024-03-08T08:43:36;4.00;99.90
57664;DHT22;43493;53.098;6.064;2024-03-08T08:46:02;4.00;99.90
57664;DHT22;43493;53.098;6.064;2024-03-08T08:48:28;4.00;99.90
57664;DHT22;43493;53.098;6.064;2024-03-08T08:50:56;4.10;99.90
57664;DHT22;43493;53.098;6.064;2024-03-08T08:53:22;4.20;99.90
57664;DHT22;43493;53.098;6.064;2024-03-08T08:55:48;4.20;99.90
57664;DHT22;43493;53.098;6.064;2024-03-08T08:58:14;4.20;99.90
57664;DHT22;43493;53.098;6.064;2024-03-08T09:00:40;4.30;99.90
57664;DHT22;43493;53.098;6.064;2024-03-08T09:03:06;4.30;99.90
57664;DHT22;43493;53.098;6.064;2024-03-08T09:05:34;4.40;99.90
57664;DHT22;43493;53.098;6.064;2024-03-08T09:08:00;4.40;99.90
57664;DHT22;43493;53.098;6.064;2024-03-08T09:10:26;4.40;99.90
57664;DHT22;43493;53.098;6.064;2024-03-08T09:12:53;4.50;99.90
57664;DHT22;43493;53.098;6.064;2024-03-08T09:15:19;4.50;99.90
57664;DHT22;43493;53.098;6.064;2024-03-08T09:17:46;4.60;99.90
57664;DHT22;43493;53.098;6.064;2024-03-08T09:20:13;4.70;99.90
57664;DHT22;43493;53.098;6.064;2024-03-08T09:22:43;4.70;99.90
57664;DHT22;43493;53.098;6.064;2024-03-08T09:25:09;4.70;99.90
57664;DHT22;43493;53.098;6.064;2024-03-08T09:27:35;4.80;99.90
57664;DHT22;43493;53.098;6.064;2024-03-08T09:30:01;4.80;99.90
57664;DHT22;43493;53.098;6.064;2024-03-08T09:32:27;4.80;99.90
57664;DHT22;43493;53.098;6.064;2024-03-08T09:34:53;4.90;99.90
57664;DHT22;43493;53.098;6.064;2024-03-08T09:37:18;5.00;99.90
57664;DHT22;43493;53.098;6.064;2024-03-08T09:39:44;5.00;99.90
57664;DHT22;43493;53.098;6.064;2024-03-08T09:42:10;5.00;99.90
57664;DHT22;43493;53.098;6.064;2024-03-08T09:44:44;5.10;99.90
57664;DHT22;43493;53.098;6.064;2024-03-08T09:47:14;5.10;99.90
57664;DHT22;43493;53.098;6.064;2024-03-08T09:49:40;5.10;99.90
57664;DHT22;43493;53.098;6.064;2024-03-08T09:52:07;5.10;99.90
57664;DHT22;43493;53.098;6.064;2024-03-08T09:54:33;5.10;99.90
57664;DHT22;43493;53.098;6.064;2024-03-08T09:56:59;5.10;99.90
57664;DHT22;43493;53.098;6.064;2024-03-08T09:59:25;5.10;99.90
57664;DHT22;43493;53.098;6.064;2024-03-08T10:01:51;5.20;99.90
57664;DHT22;43493;53.098;6.064;2024-03-08T10:04:24;5.30;99.90
57664;DHT22;43493;53.098;6.064;2024-03-08T10:06:51;5.30;99.90
57664;DHT22;43493;53.098;6.064;2024-03-08T10:09:18;5.30;99.90
57664;DHT22;43493;53.098;6.064;2024-03-08T10:11:44;5.30;99.90
57664;DHT22;43493;53.098;6.064;2024-03-08T10:14:11;5.30;99.90
57664;DHT22;43493;53.098;6.064;2024-03-08T10:16:38;5.30;99.90
57664;DHT22;43493;53.098;6.064;2024-03-08T10:19:04;5.40;99.90
57664;DHT22;43493;53.098;6.064;2024-03-08T10:21:32;5.40;99.90
57664;DHT22;43493;53.098;6.064;2024-03-08T10:23:58;5.40;99.90
57664;DHT22;43493;53.098;6.064;2024-03-08T10:26:25;5.40;99.90
57664;DHT22;43493;53.098;6.064;2024-03-08T10:28:53;5.40;99.90
57664;DHT22;43493;53.098;6.064;2024-03-08T10:31:20;5.40;99.90
57664;DHT22;43493;53.098;6.064;2024-03-08T10:33:46;5.40;99.90
57664;DHT22;43493;53.098;6.064;2024-03-08T10:36:13;5.40;99.90
57664;DHT22;43493;53.098;6.064;2024-03-08T10:38:41;5.40;99.90
57664;DHT22;43493;53.098;6.064;2024-03-08T10:41:08;5.50;99.90
57664;DHT22;43493;53.098;6.064;2024-03-08T10:46:39;5.60;99.90
57664;DHT22;43493;53.098;6.064;2024-03-08T10:49:17;5.60;99.90
57664;DHT22;43493;53.098;6.064;2024-03-08T10:51:48;5.60;99.90
57664;DHT22;43493;53.098;6.064;2024-03-08T10:54:15;5.70;99.90
57664;DHT22;43493;53.098;6.064;2024-03-08T10:56:41;5.70;99.90
57664;DHT22;43493;53.098;6.064;2024-03-08T10:59:10;5.80;99.90
57664;DHT22;43493;53.098;6.064;2024-03-08T11:01:36;5.80;99.90
57664;DHT22;43493;53.098;6.064;2024-03-08T11:04:04;5.80;99.90
57664;DHT22;43493;53.098;6.064;2024-03-08T11:09:08;5.90;99.90
57664;DHT22;43493;53.098;6.064;2024-03-08T11:11:39;6.00;99.90
57664;DHT22;43493;53.098;6.064;2024-03-08T11:14:43;6.00;99.90
57664;DHT22;43493;53.098;6.064;2024-03-08T11:17:09;6.10;99.90
57664;DHT22;43493;53.098;6.064;2024-03-08T11:19:35;6.10;99.90
57664;DHT22;43493;53.098;6.064;2024-03-08T11:22:04;6.10;99.90
57664;DHT22;43493;53.098;6.064;2024-03-08T11:24:37;6.10;99.90
57664;DHT22;43493;53.098;6.064;2024-03-08T11:27:06;6.20;99.90
57664;DHT22;43493;53.098;6.064;2024-03-08T11:29:36;6.20;99.90
57664;DHT22;43493;53.098;6.064;2024-03-08T11:32:16;6.30;99.90
57664;DHT22;43493;53.098;6.064;2024-03-08T11:34:45;6.40;99.90
57664;DHT22;43493;53.098;6.064;2024-03-08T11:37:16;6.40;99.90
57664;DHT22;43493;53.098;6.064;2024-03-08T11:40:02;6.50;99.90
57664;DHT22;43493;53.098;6.064;2024-03-08T11:42:30;6.50;99.90
57664;DHT22;43493;53.098;6.064;2024-03-08T11:44:56;6.50;99.90
57664;DHT22;43493;53.098;6.064;2024-03-08T11:47:22;6.50;99.90
57664;DHT22;43493;53.098;6.064;2024-03-08T11:49:48;6.60;99.90
57664;DHT22;43493;53.098;6.064;2024-03-08T11:52:15;6.70;99.90
57664;DHT22;43493;53.098;6.064;2024-03-08T11:54:42;6.70;99.90
57664;DHT22;43493;53.098;6.064;2024-03-08T11:57:09;6.70;99.90
57664;DHT22;43493;53.098;6.064;2024-03-08T11:59:38;6.70;99.90
57664;DHT22;43493;53.098;6.064;2024-03-08T12:02:05;6.80;99.90
57664;DHT22;43493;53.098;6.064;2024-03-08T12:04:32;6.80;99.90
57664;DHT22;43493;53.098;6.064;2024-03-08T12:07:01;6.90;99.90
57664;DHT22;43493;53.098;6.064;2024-03-08T12:09:28;6.90;99.90
57664;DHT22;43493;53.098;6.064;2024-03-08T12:11:54;7.00;99.90
57664;DHT22;43493;53.098;6.064;2024-03-08T12:14:20;7.00;99.90
57664;DHT22;43493;53.098;6.064;2024-03-08T12:16:46;7.10;99.90
57664;DHT22;43493;53.098;6.064;2024-03-08T12:19:14;7.10;99.90
57664;DHT22;43493;53.098;6.064;2024-03-08T12:21:42;7.10;99.90
57664;DHT22;43493;53.098;6.064;2024-03-08T12:24:17;7.10;99.90
57664;DHT22;43493;53.098;6.064;2024-03-08T12:26:47;7.20;99.90
57664;DHT22;43493;53.098;6.064;2024-03-08T12:29:25;7.20;99.90
57664;DHT22;43493;53.098;6.064;2024-03-08T12:31:54;7.20;99.90
57664;DHT22;43493;53.098;6.064;2024-03-08T12:34:20;7.30;99.90
57664;DHT22;43493;53.098;6.064;2024-03-08T12:36:51;7.40;99.90
57664;DHT22;43493;53.098;6.064;2024-03-08T12:39:21;7.40;99.90
57664;DHT22;43493;53.098;6.064;2024-03-08T12:41:53;7.50;99.90
57664;DHT22;43493;53.098;6.064;2024-03-08T12:44:20;7.60;99.90
57664;DHT22;43493;53.098;6.064;2024-03-08T12:46:47;7.60;99.90
57664;DHT22;43493;53.098;6.064;2024-03-08T12:49:14;7.60;99.90
57664;DHT22;43493;53.098;6.064;2024-03-08T12:51:46;7.70;99.90
57664;DHT22;43493;53.098;6.064;2024-03-08T12:54:12;7.70;99.90
57664;DHT22;43493;53.098;6.064;2024-03-08T12:56:38;7.80;99.90
57664;DHT22;43493;53.098;6.064;2024-03-08T12:59:06;7.80;99.90
57664;DHT22;43493;53.098;6.064;2024-03-08T13:01:33;7.80;99.90
57664;DHT22;43493;53.098;6.064;2024-03-08T13:03:59;7.80;99.90
57664;DHT22;43493;53.098;6.064;2024-03-08T13:06:29;7.80;99.90
57664;DHT22;43493;53.098;6.064;2024-03-08T13:08:57;7.80;99.90
57664;DHT22;43493;53.098;6.064;2024-03-08T13:11:24;7.80;99.90
57664;DHT22;43493;53.098;6.064;2024-03-08T13:13:51;7.90;99.90
57664;DHT22;43493;53.098;6.064;2024-03-08T13:16:18;7.90;99.90
57664;DHT22;43493;53.098;6.064;2024-03-08T13:18:45;8.10;99.90
57664;DHT22;43493;53.098;6.064;2024-03-08T13:21:11;8.00;99.90
57664;DHT22;43493;53.098;6.064;2024-03-08T13:23:40;8.00;99.90
57664;DHT22;43493;53.098;6.064;2024-03-08T13:26:10;8.10;99.90
57664;DHT22;43493;53.098;6.064;2024-03-08T13:28:44;8.20;99.90
57664;DHT22;43493;53.098;6.064;2024-03-08T13:31:10;8.10;99.90
57664;DHT22;43493;53.098;6.064;2024-03-08T13:33:37;8.10;99.90
57664;DHT22;43493;53.098;6.064;2024-03-08T13:36:08;8.20;99.90
57664;DHT22;43493;53.098;6.064;2024-03-08T13:38:44;8.30;99.90
57664;DHT22;43493;53.098;6.064;2024-03-08T13:41:10;8.30;99.90
57664;DHT22;43493;53.098;6.064;2024-03-08T13:43:38;8.40;99.90
57664;DHT22;43493;53.098;6.064;2024-03-08T13:46:05;8.40;99.90
57664;DHT22;43493;53.098;6.064;2024-03-08T13:48:33;8.40;99.90
57664;DHT22;43493;53.098;6.064;2024-03-08T13:50:58;8.40;99.90
57664;DHT22;43493;53.098;6.064;2024-03-08T13:53:26;8.40;99.90
57664;DHT22;43493;53.098;6.064;2024-03-08T13:55:52;8.40;99.90
57664;DHT22;43493;53.098;6.064;2024-03-08T13:58:17;8.40;99.90
57664;DHT22;43493;53.098;6.064;2024-03-08T14:00:44;8.50;99.90
57664;DHT22;43493;53.098;6.064;2024-03-08T14:03:11;8.50;99.90
57664;DHT22;43493;53.098;6.064;2024-03-08T14:05:41;8.50;99.90
57664;DHT22;43493;53.098;6.064;2024-03-08T14:08:10;8.50;99.90
57664;DHT22;43493;53.098;6.064;2024-03-08T14:10:38;8.50;99.90
57664;DHT22;43493;53.098;6.064;2024-03-08T14:13:04;8.50;99.90
57664;DHT22;43493;53.098;6.064;2024-03-08T14:15:34;8.40;99.90
57664;DHT22;43493;53.098;6.064;2024-03-08T14:18:07;8.50;99.90
57664;DHT22;43493;53.098;6.064;2024-03-08T14:20:33;8.50;99.90
57664;DHT22;43493;53.098;6.064;2024-03-08T14:22:59;8.60;99.90
57664;DHT22;43493;53.098;6.064;2024-03-08T14:25:24;8.60;99.90
57664;DHT22;43493;53.098;6.064;2024-03-08T14:27:52;8.70;99.90
57664;DHT22;43493;53.098;6.064;2024-03-08T14:30:24;8.70;99.90
57664;DHT22;43493;53.098;6.064;2024-03-08T14:33:01;8.70;99.90
57664;DHT22;43493;53.098;6.064;2024-03-08T14:35:28;8.60;99.90
57664;DHT22;43493;53.098;6.064;2024-03-08T14:37:58;8.60;99.90
57664;DHT22;43493;53.098;6.064;2024-03-08T14:40:24;8.60;99.90
57664;DHT22;43493;53.098;6.064;2024-03-08T14:42:51;8.60;99.90
57664;DHT22;43493;53.098;6.064;2024-03-08T14:45:17;8.60;99.90
57664;DHT22;43493;53.098;6.064;2024-03-08T14:47:47;8.70;99.90
57664;DHT22;43493;53.098;6.064;2024-03-08T14:50:19;8.60;99.90
57664;DHT22;43493;53.098;6.064;2024-03-08T14:52:45;8.60;99.90
57664;DHT22;43493;53.098;6.064;2024-03-08T14:55:18;8.60;99.90
57664;DHT22;43493;53.098;6.064;2024-03-08T14:57:48;8.60;99.90
57664;DHT22;43493;53.098;6.064;2024-03-08T15:00:17;8.60;99.90
57664;DHT22;43493;53.098;6.064;2024-03-08T15:02:44;8.60;99.90
57664;DHT22;43493;53.098;6.064;2024-03-08T15:05:10;8.50;99.90
57664;DHT22;43493;53.098;6.064;2024-03-08T15:07:40;8.60;99.90
57664;DHT22;43493;53.098;6.064;2024-03-08T15:10:08;8.60;99.90
57664;DHT22;43493;53.098;6.064;2024-03-08T15:12:39;8.60;99.90
57664;DHT22;43493;53.098;6.064;2024-03-08T15:15:08;8.60;99.90
57664;DHT22;43493;53.098;6.064;2024-03-08T15:17:35;8.50;99.90
57664;DHT22;43493;53.098;6.064;2024-03-08T15:20:02;8.60;99.90
57664;DHT22;43493;53.098;6.064;2024-03-08T15:22:29;8.60;99.90
57664;DHT22;43493;53.098;6.064;2024-03-08T15:24:54;8.60;99.90
57664;DHT22;43493;53.098;6.064;2024-03-08T15:27:20;8.50;99.90
57664;DHT22;43493;53.098;6.064;2024-03-08T15:29:46;8.50;99.90
57664;DHT22;43493;53.098;6.064;2024-03-08T15:32:16;8.50;99.90
57664;DHT22;43493;53.098;6.064;2024-03-08T15:34:46;8.50;99.90
57664;DHT22;43493;53.098;6.064;2024-03-08T15:37:11;8.50;99.90
57664;DHT22;43493;53.098;6.064;2024-03-08T15:39:43;8.50;99.90
57664;DHT22;43493;53.098;6.064;2024-03-08T15:42:09;8.50;99.90
57664;DHT22;43493;53.098;6.064;2024-03-08T15:44:37;8.60;99.90
57664;DHT22;43493;53.098;6.064;2024-03-08T15:47:04;8.50;99.90
57664;DHT22;43493;53.098;6.064;2024-03-08T15:49:33;8.60;99.90
57664;DHT22;43493;53.098;6.064;2024-03-08T15:51:58;8.50;99.90
57664;DHT22;43493;53.098;6.064;2024-03-08T15:54:24;8.30;99.90